• Join FlightAware (Why Join?)
  • Login
  • US Flag 
09:20PM EDT


 

Airport Tracker/Info


-or-


 

Live Flight TrackerFlight Track Log ✈ QLK118D ✈ 12-Sep-2013 ✈ YSSY / SYD - YCFS

Flight Track Log - Related Links

Times and Time Zones

All times are in EDT time to prevent confusion due to time zone crossing. See the QLK118D flight status page for this flight to view local times or setup timezone preferences in your user account.

Time Position Orientation Groundspeed Altitude Reporting Facility
EDT Latitude Longitude Course Direction KTS MPH feet Rate Location/Type
05:21AM -33.1372 151.6873 20° North 368 423 20,000  Level Aus ATC (RADAR)
05:22AM -33.0875 151.7090 20° North 377 434 19,700 -540 Descending Aus ATC (RADAR)
05:22AM -33.0244 151.7360 20° North 373 429 19,400 -300 Descending Aus ATC (RADAR)
05:24AM -32.8791 151.7972 19° North 365 420 19,100 -120 Descending Aus ATC (RADAR)
05:26AM -32.6486 151.8642 14° North 365 420 19,100  Level Aus ATC (RADAR)
05:27AM -32.5399 151.8898 11° North 365 420 19,100  Level Aus ATC (RADAR)
05:28AM -32.5147 151.8960 12° North 366 421 19,100  Level Aus ATC (RADAR)
05:29AM -32.3685 151.9303 11° North 369 425 19,100  Level Aus ATC (RADAR)
05:29AM -32.3433 151.9366 12° North 370 426 19,100  Level Aus ATC (RADAR)
05:32AM -32.0840 151.9960 11° North 370 426 19,100 -60 Level Aus ATC (RADAR)
05:33AM -31.9702 152.0503 22° Northeast 385 443 19,000 -120 Descending Aus ATC (RADAR)
05:33AM -31.9469 152.0659 30° Northeast 384 442 19,000  Level Aus ATC (RADAR)
05:35AM -31.7961 152.1576 27° Northeast 384 442 19,000  Level Aus ATC (RADAR)
05:37AM -31.5496 152.3052 27° Northeast 383 441 19,000 -180 Level Aus ATC (RADAR)
05:39AM -31.4466 152.3672 27° Northeast 385 443 18,500 -480 Descending Aus ATC (RADAR)
05:39AM -31.4227 152.3815 27° Northeast 386 444 18,400 -540 Descending Aus ATC (RADAR)
05:40AM -31.2774 152.4668 27° Northeast 375 432 17,600 -600 Descending Aus ATC (RADAR)
05:43AM -31.0672 152.5908 27° Northeast 367 422 16,200 -1,080 Descending Aus ATC (RADAR)
05:44AM -30.9603 152.6539 27° Northeast 359 413 14,000 -1,860 Descending Aus ATC (RADAR)
05:44AM -30.9413 152.6645 25° Northeast 364 419 13,700 -1,800 Descending Aus ATC (RADAR)
05:45AM -30.8122 152.7400 27° Northeast 316 364 10,900 -1,680 Descending Aus ATC (RADAR)
05:48AM -30.6466 152.8369 27° Northeast 260 299 7,400 -1,440 Descending Aus ATC (RADAR)
05:49AM -30.5780 152.8769 27° Northeast 241 277 6,000 -1,260 Descending Aus ATC (RADAR)
05:49AM -30.5628 152.8852 25° Northeast 241 277 5,700 -1,260 Descending Aus ATC (RADAR)
05:51AM -30.4913 152.9539 40° Northeast 227 261 3,900 -1,140 Descending Aus ATC (RADAR)
05:52AM -30.4326 153.0136 41° Northeast 153 176 2,400 -900 Descending Aus ATC (RADAR)
05:53AM -30.3945 153.0480 38° Northeast 167 192 1,600 -840 Descending Aus ATC (RADAR)
05:54AM -30.3812 153.0655 49° Northeast 133 153 1,100 -900 Descending Aus ATC (RADAR)